Weather observations for the past three days for
Manteo / Dare County Regional
Imperial (Metric)
Date Time (edt) Wind (mph) Vis. (mi.) Weather Sky Cond. Temperature (ºF) Relative Humidity Wind Chill (°F) Heat Index (°F) Pressure Precipitation (in)
Air Dwpt 6 hour altimeter (in) sea level (mb) 1 hr 3 hr 6 hr
Max. Min.
04 21:35 SW 17 10.00 Fair CLR 63.9 52.5 67% 30.03 0.0
04 21:15 SW 16 10.00 Fair CLR 64 52.3 66% 30.03 0.0
04 20:55 SW 17 10.00 Fair CLR 64.4 52 64% 30.02 0.0
04 20:35 SW 17 10.00 Fair CLR 64.8 52.2 64% 30.01 0.0
04 20:15 SW 20 G 26 10.00 Fair CLR 65.5 51.6 61% 30 0.0
04 19:55 SW 21 G 26 10.00 Fair and Breezy CLR 65.7 50.4 68.2 65.7 58% 30 0.0
04 19:35 SW 23 10.00 Fair and Breezy CLR 66.4 50 56% 29.99 0.0
04 19:15 SW 24 G 30 10.00 Fair and Breezy CLR 66.6 50 55% 29.99 0.0
04 18:55 SW 22 G 30 10.00 Fair and Breezy CLR 66.6 50.5 57% 29.99 0.0
04 18:35 SW 24 10.00 Fair and Breezy CLR 67.1 50.5 55% 29.99 0.0
04 18:15 SW 23 G 30 10.00 Fair and Breezy CLR 67.3 49.8 54% 29.99 0.0
04 17:55 SW 22 10.00 Fair and Breezy CLR 68 48.7 50% 30 0.0
04 17:15 SW 21 10.00 Fair and Breezy CLR 67.5 52.3 59% 30 0.0
04 16:55 S 21 10.00 Fair and Breezy CLR 67.5 52.9 60% 30 0.0
04 16:35 S 24 10.00 Fair and Breezy CLR 67.6 52.9 59% 30 0.0
04 16:15 S 18 G 25 10.00 Fair CLR 67.6 52.7 59% 30 0.0
04 15:55 S 17 G 26 10.00 Fair CLR 67.6 53.6 61% 30.01 0.0
04 15:35 S 18 G 25 10.00 Fair CLR 67.6 53.2 60% 30.01 0.0
04 15:15 S 20 G 26 10.00 Fair CLR 67.8 54.3 62% 30.01 0.0
04 14:55 S 20 G 26 10.00 Partly Cloudy SCT050 67.3 54.7 64% 30.02 0.0
04 14:35 S 20 G 26 10.00 Partly Cloudy SCT060 67.1 53.8 62% 30.02 0.0
04 14:15 S 18 G 26 10.00 Mostly Cloudy BKN060 66.6 53.8 64% 30.03 0.0
04 13:55 S 17 G 28 10.00 Mostly Cloudy BKN070 67.1 53.1 69.1 56.8 61% 30.03 0.0
04 13:35 S 20 G 28 10.00 Mostly Cloudy BKN070 66.7 53.6 63% 30.04 0.0
04 13:15 S 17 G 24 10.00 Partly Cloudy SCT070 67.5 53.1 60% 30.04 0.0
04 12:55 S 17 10.00 Fair CLR 66.9 53.1 61% 30.05 0.0
04 12:35 S 14 G 21 10.00 Fair CLR 66.7 53.1 62% 30.05 0.0
04 12:15 S 10 10.00 Fair CLR 68.9 51.4 54% 30.06 0.0
04 11:55 SW 9 G 16 10.00 Fair CLR 68.5 48.2 48% 30.06 0.0
04 11:35 SW 12 10.00 Fair CLR 69.1 47.3 46% 30.06 0.0
04 11:20 SW 9 10.00 Fair CLR 68 47.7 48% 30.06 0.0
04 10:55 SW 10 10.00 Fair CLR 67.3 49.5 53% 30.07 0.0
04 10:35 W 9 10.00 Fair CLR 66.6 48.2 52% 30.07 0.0
04 10:15 W 12 G 16 10.00 Fair CLR 65.3 48.6 55% 30.07 0.0
04 09:55 W 12 G 16 10.00 Fair CLR 65.1 48.6 55% 30.07 0.0
04 09:35 W 10 10.00 Fair CLR 63.7 49.6 60% 30.07 0.0
04 09:15 W 9 10.00 Fair CLR 62.4 49.6 63% 30.08 0.0
04 08:55 W 7 10.00 Fair CLR 60.8 49.3 66% 30.08 0.0
04 08:35 W 8 10.00 Fair CLR 59.7 49.6 69% 30.09 0.0
04 08:15 SW 7 10.00 Fair CLR 57.7 50 76% 30.09 0.0
04 07:55 W 7 10.00 Fair CLR 57 49.5 57 46.2 76% 30.09 0.0
04 07:35 W 8 10.00 Fair CLR 55.8 49.3 79% 30.1 0.0
04 07:15 W 5 10.00 Fair CLR 54.5 48.6 80% 30.09 0.0
04 06:55 W 5 10.00 Fair CLR 54.1 48.7 82% 30.09 0.0
04 06:35 SW 7 10.00 Fair CLR 54.5 48.2 79% 30.09 0.0
04 06:15 SW 7 10.00 Fair CLR 55.2 48.4 78% 30.09 0.0
04 05:55 SW 8 10.00 Fair CLR 55.2 48.7 79% 30.09 0.0
04 05:35 Calm 10.00 Fair CLR 46.8 44.8 93% 30.09 0.0
04 05:15 Calm 10.00 Fair CLR 47.8 44.8 89% 30.09 0.0
04 04:55 Calm 10.00 Fair CLR 46.9 45 93% 30.09 0.0
04 04:35 Calm 10.00 Fair CLR 48.7 46.4 92% 30.09 0.0
04 04:15 Calm 10.00 Fair CLR 47.7 45.5 92% 30.09 0.0
04 03:55 Calm 10.00 Fair CLR 47.1 44.6 91% 30.1 0.0
04 03:35 Calm 10.00 Fair CLR 49.3 46.2 89% 30.09 0.0
04 03:15 Calm 10.00 Fair CLR 49.5 45.1 85% 30.09 0.0
04 02:55 S 5 10.00 Fair CLR 53.4 46.2 77% 30.09 0.0
04 02:15 S 6 10.00 Fair CLR 53.2 46.4 78% 30.09 0.0
04 01:55 S 7 10.00 Fair CLR 53.6 46.8 53.6 48.6 78% 30.1 0.0
04 01:35 S 5 10.00 Fair CLR 52.7 46.6 80% 30.1 0.0
04 01:15 S 6 10.00 Fair CLR 51.6 45.9 81% 30.1 0.0
04 00:55 SE 5 10.00 Fair CLR 50 44.6 82% 49 30.1 0.0
04 00:35 SE 5 10.00 Fair CLR 48.7 43.7 83% 47 30.1 0.0
04 00:15 SE 3 10.00 Fair CLR 48.6 42.8 81% 30.1 0.0
03 23:55 S 6 10.00 Fair CLR 50 42.8 76% 48 30.11 0.0
03 23:35 SE 3 10.00 Fair CLR 49.5 42.1 76% 30.11 0.0
03 23:15 SE 3 10.00 Fair CLR 49.5 41.5 74% 30.11 0.0
03 22:55 SE 5 10.00 Fair CLR 49.5 41.2 73% 48 30.11 0.0
03 22:35 SE 3 10.00 Fair CLR 49.3 40.6 72% 30.11 0.0
03 22:15 SE 6 10.00 Fair CLR 49.6 40.5 71% 48 30.11 0.0
03 21:55 SE 7 10.00 Fair CLR 50 40.1 69% 48 30.1 0.0
03 21:35 SE 7 10.00 Fair CLR 50 40.1 69% 48 30.09 0.0
03 21:15 SE 6 10.00 Fair CLR 50 39.6 68% 48 30.08 0.0
03 20:55 SE 6 10.00 Fair CLR 50 39.2 67% 48 30.08 0.0
03 20:35 SE 7 10.00 Fair CLR 50.2 38.7 65% 30.07 0.0
03 20:15 SE 7 10.00 Fair CLR 50.5 38.7 64% 30.06 0.0
03 19:55 SE 6 10.00 Fair CLR 51.1 38.5 61.3 51.1 62% 30.06 0.0
03 19:35 SE 9 10.00 Fair CLR 52.2 38.3 59% 30.05 0.0
03 19:15 SE 8 10.00 Fair CLR 53.1 38.1 57% 30.05 0.0
03 18:55 SE 10 10.00 Fair CLR 54.3 38.5 55% 30.04 0.0
03 18:35 SE 10 10.00 Fair CLR 54.9 38.5 54% 30.04 0.0
03 18:15 E 5 10.00 Partly Cloudy SCT060 57.2 38.3 49% 30.04 0.0
03 17:55 E 6 10.00 Fair CLR 56.5 37.9 50% 30.04 0.0
03 17:35 W 6 10.00 Fair CLR 60.8 34.7 38% 30.03 0.0
03 17:15 NW 8 10.00 Fair CLR 61 35.6 39% 30.03 0.0
03 16:55 NW 7 10.00 Fair CLR 60.8 32.7 35% 30.03 0.0
03 16:35 NW 8 10.00 Fair CLR 60.6 34.3 37% 30.03 0.0
03 16:15 NW 8 10.00 Fair CLR 61 34.5 37% 30.03 0.0
03 15:55 N 10 G 17 10.00 Fair CLR 60.6 34.2 37% 30.04 0.0
03 15:35 NW 10 10.00 Fair CLR 59.9 34.3 38% 30.05 0.0
03 15:15 NW 9 G 17 10.00 Fair CLR 60.1 34.5 38% 30.05 0.0
03 14:55 NW 10 10.00 Fair CLR 59.4 34.2 39% 30.05 0.0
03 14:35 NW 13 G 16 10.00 Fair CLR 60.1 35.2 40% 30.06 0.0
03 14:15 NW 10 G 16 10.00 Fair CLR 59 34 39% 30.06 0.0
03 13:55 NW 12 G 20 10.00 Fair CLR 58.3 32.5 59 54.5 38% 30.06 0.0
03 13:35 NW 8 G 20 10.00 Fair CLR 57.7 33.4 40% 30.07 0.0
03 13:15 NW 12 G 17 10.00 Fair CLR 58.3 34.2 40% 30.07 0.0
03 12:55 N 10 G 17 10.00 Fair CLR 57.9 34.3 41% 30.07 0.0
03 12:35 NW 10 G 17 10.00 Fair CLR 57.2 33.4 41% 30.07 0.0
03 12:15 NW 10 G 20 10.00 Fair CLR 58.1 35.4 43% 30.07 0.0
03 11:55 NW 13 G 21 10.00 Fair CLR 57.7 34 41% 30.07 0.0
03 11:35 NW 8 G 17 10.00 Fair CLR 56.8 34.3 43% 30.07 0.0
03 11:15 N 8 G 20 10.00 Fair CLR 56.3 35.4 46% 30.07 0.0
03 10:55 N 12 G 20 10.00 Partly Cloudy SCT060 56.1 34.9 45% 30.07 0.0
03 10:35 N 14 G 20 10.00 Mostly Cloudy BKN060 55.8 33.4 43% 30.07 0.0
03 10:15 N 10 G 17 10.00 Partly Cloudy SCT060 55.6 34.3 45% 30.07 0.0
03 09:55 N 12 G 21 10.00 Partly Cloudy SCT065 55.2 33.8 44% 30.06 0.0
03 09:35 N 14 G 23 10.00 Partly Cloudy SCT065 SCT075 55.4 35.6 47% 30.05 0.0
03 09:15 N 10 G 20 10.00 Partly Cloudy SCT065 55.4 39.4 55% 30.05 0.0
03 08:55 N 10 G 17 10.00 Partly Cloudy SCT041 54.9 38.3 54% 30.04 0.0
03 08:35 N 15 G 21 10.00 Fair CLR 55.2 38.7 54% 30.03 0.0
03 08:15 NE 14 G 18 10.00 Fair CLR 55.2 39.7 56% 30.02 0.0
03 07:55 NE 10 10.00 Fair CLR 54.5 43.2 54.5 52.3 66% 30.01 0.0
03 07:35 N 9 10.00 Fair CLR 53.6 42.8 67% 30 0.0
03 07:15 N 12 10.00 Fair CLR 53.1 41.4 65% 30 0.0
03 06:55 N 7 10.00 Partly Cloudy SCT085 52.7 40.3 63% 29.99 0.0
03 06:35 N 9 10.00 Mostly Cloudy BKN085 52.7 39.6 61% 29.98 0.0
03 06:15 N 8 G 18 10.00 Partly Cloudy SCT085 52.9 38.1 57% 29.97 0.0
03 05:55 N 7 10.00 Partly Cloudy SCT085 52.7 39.6 61% 29.96 0.0
03 05:35 N 7 10.00 Fair CLR 52.9 39 59% 29.95 0.0
03 05:15 N 8 10.00 Partly Cloudy SCT070 53.1 38.5 58% 29.95 0.0
03 04:55 N 9 10.00 Fair CLR 53.1 38.5 58% 29.94 0.0
03 04:35 N 9 G 17 10.00 Fair CLR 53.6 37.9 56% 29.93 0.0
03 04:15 N 6 10.00 Fair CLR 53.8 40.1 60% 29.93 0.0
03 03:55 N 9 10.00 Fair CLR 54 38.7 56% 29.92 0.0
03 03:35 N 9 G 18 10.00 Fair CLR 54 39 57% 29.92 0.0
03 03:15 N 9 10.00 Fair CLR 53.8 40.1 60% 29.9 0.0
03 02:55 N 12 G 18 10.00 Fair CLR 53.6 40.8 62% 29.9 0.0
03 02:35 N 8 10.00 Fair CLR 54 41.5 63% 29.88 0.0
03 02:15 N 8 10.00 Partly Cloudy SCT110 54.1 41.7 63% 29.88 0.0
03 01:55 N 9 10.00 Partly Cloudy SCT090 SCT110 54.3 41.9 54.5 52 63% 29.88 0.0
03 01:35 N 9 10.00 Mostly Cloudy SCT090 BKN120 54.1 41.9 63% 29.89 0.0
03 01:15 N 9 10.00 Overcast SCT090 OVC110 54.3 42.3 64% 29.89 0.0
03 00:55 N 8 10.00 Overcast SCT080 OVC110 54.5 42.1 63% 29.89 0.0
03 00:35 N 9 10.00 Overcast SCT065 SCT080 OVC100 54.3 42.8 65% 29.9 0.0
03 00:15 N 7 10.00 Overcast SCT065 OVC090 54 41.5 63% 29.89 0.0
02 23:55 N 9 10.00 Overcast SCT065 SCT075 OVC090 53.8 40.6 61% 29.89 0.0
02 23:35 N 13 G 18 10.00 Overcast OVC090 53.8 40.8 62% 29.89 0.0
02 23:15 N 12 G 17 10.00 Overcast OVC090 53.6 41.2 63% 29.89 0.0
02 22:55 N 10 G 16 10.00 Overcast OVC090 54 43.3 67% 29.89 0.0
02 22:35 N 7 10.00 Overcast OVC090 53.6 45.3 74% 29.89 0.0
02 22:15 N 12 10.00 Overcast OVC090 53.6 45.5 74% 29.89 0.0
02 21:55 N 12 10.00 Overcast SCT080 OVC090 53.6 45.9 75% 29.88 0.0
02 21:35 N 8 10.00 Overcast OVC090 53.1 46.8 79% 29.89 0.0
02 21:15 N 7 10.00 Overcast OVC090 52.7 47.5 83% 29.89 0.0
02 20:55 N 9 10.00 Overcast SCT060 OVC090 52.3 47.3 83% 29.87 0.0
02 20:35 N 7 10.00 Overcast SCT060 OVC080 52.2 47.3 84% 29.88 0.0
02 20:15 N 6 10.00 Overcast SCT070 OVC080 52.2 46.6 81% 29.87 0.0
02 19:55 N 9 10.00 Overcast SCT030 SCT047 OVC080 52 46.6 53.6 50.9 82% 29.86 0.0 0.04
02 19:35 N 9 10.00 Overcast SCT046 BKN065 OVC075 52.2 45.7 79% 29.86 0.0
02 19:15 NE 14 G 20 10.00 Overcast SCT023 SCT041 OVC075 51.8 45.3 79% 29.84 0.0
02 18:55 N 14 G 18 10.00 Overcast SCT015 OVC025 51.3 45.7 81% 29.85 0.0
02 18:35 NE 14 10.00 Overcast SCT017 OVC023 51.3 46.9 85% 29.84 0.0
02 18:15 N 14 G 21 10.00 Overcast OVC021 51.4 46.8 84% 29.86 0.0
02 17:55 NE 16 10.00 Overcast SCT016 BKN023 OVC065 51.3 47.1 86% 29.86 0.0 0.02
02 17:40 NE 17 10.00 Overcast SCT016 SCT023 OVC065 51.1 47.3 87% 29.85 0.0 0.02
02 17:15 NE 12 G 16 10.00 Overcast OVC065 51.1 46.9 86% 29.85 0.0
02 16:55 NE 13 10.00 Overcast OVC065 51.3 46.2 83% 29.85 0.0 0.01 0.02
02 16:40 NE 14 10.00 Overcast OVC065 51.6 46.6 83% 29.84 0.0
02 16:15 NE 12 10.00 Overcast OVC065 51.6 46.6 83% 29.84 0.0
02 15:55 NE 14 G 18 10.00 Overcast SCT014 SCT039 OVC065 52.2 46.9 83% 29.84 0.0
02 15:15 NE 21 G 25 10.00 Overcast and Breezy SCT014 BKN080 OVC100 53.2 48.2 83% 29.86 0.0
02 14:55 NE 17 G 24 10.00 Overcast BKN012 BKN024 OVC070 53.6 49.8 87% 29.87 0.0 0.01
02 14:35 NE 15 G 22 10.00 Overcast BKN012 BKN022 OVC036 53.6 50.5 89% 29.87 0.0 0.01
02 14:15 NE 17 G 24 10.00 Overcast BKN012 OVC037 52.7 50 91% 29.88 0.0 0.01
02 13:55 NE 15 G 25 10.00 Overcast OVC010 52.3 49.5 56.3 52.3 90% 29.91 0.0 0.01 0.05
02 13:35 N 17 G 24 10.00 Overcast OVC010 53.8 51.1 91% 29.91 0.0
02 13:15 NE 17 G 23 10.00 Overcast OVC008 54.1 51.3 90% 29.9 0.0
02 12:55 NE 15 G 23 10.00 Overcast OVC008 54 51.4 91% 29.88 0.0
02 12:35 NE 16 G 22 10.00 Overcast OVC008 55.2 53.2 93% 29.88 0.0
02 12:15 NE 15 G 20 10.00 Overcast OVC008 54.7 52.7 93% 29.9 0.0
02 11:55 NE 14 G 18 10.00 Overcast BKN010 BKN017 OVC060 54.5 52.2 92% 29.92 0.0 0.01
02 11:35 NE 13 G 18 10.00 Overcast SCT010 BKN036 OVC060 54.7 52 91% 29.92 0.0
02 11:15 NE 14 10.00 Overcast SCT010 SCT020 OVC060 54.7 52.2 91% 29.91 0.0
02 10:55 NE 12 10.00 Overcast OVC070 55 52.3 91% 29.9 0.0 0.03
02 10:35 NE 12 G 17 10.00 Overcast SCT010 OVC070 55.4 52.2 89% 29.89 0.0
02 10:15 NE 13 G 17 10.00 Overcast OVC070 55.6 52.7 90% 29.89 0.0
02 09:55 NE 14 G 18 10.00 Overcast OVC070 55.8 52.9 90% 29.89 0.0
02 09:35 NE 9 10.00 Overcast SCT009 SCT018 OVC070 55.6 52.7 90% 29.88 0.0
02 09:15 NE 12 10.00 Overcast SCT009 BKN018 OVC060 56.3 54.5 94% 29.89 0.0
02 08:55 NE 12 10.00 Overcast SCT008 SCT040 OVC060 56.1 54.5 94% 29.89 0.0 0.03
02 08:35 NE 9 10.00 Overcast SCT008 BKN060 OVC070 55.9 54.7 96% 29.89 0.0 0.02
02 08:15 N 10 10.00 Overcast BKN006 BKN034 OVC070 55.4 54.5 97% 29.89 0.0 0.01
02 07:55 N 14 7.00 Overcast OVC004 55.4 54.5 57.4 54.5 97% 29.89 0.0 0.08 0.31
02 07:35 N 12 10.00 Overcast OVC004 55.4 54.5 97% 29.89 0.0 0.06
02 07:15 N 14 7.00 Overcast BKN004 OVC015 55.4 54.5 97% 29.88 0.0 0.02
02 06:55 N 8 10.00 Overcast BKN004 BKN015 OVC027 56.3 55.6 97% 29.89 0.0 0.05
02 06:35 N 8 7.00 Overcast OVC004 56.7 56.1 98% 29.88 0.0 0.03
02 06:15 N 7 7.00 Overcast BKN004 BKN013 OVC033 57 56.3 97% 29.88 0.0 0.02
02 05:55 N 5 5.00 Overcast BKN006 BKN024 OVC035 56.7 55.9 97% 29.87 0.0 0.18
02 05:35 NW 3 7.00 Overcast SCT005 BKN011 OVC038 56.5 55.4 96% 29.87 0.0 0.03
02 05:15 N 8 10.00 Overcast SCT010 BKN026 OVC038 56.8 55 94% 29.86 0.0
02 04:55 N 8 10.00 Overcast SCT010 BKN027 OVC038 57.4 55.9 95% 29.86 0.0
02 04:35 N 6 10.00 Overcast SCT038 OVC110 56.8 55.6 96% 29.85 0.0
02 04:15 N 5 10.00 Partly Cloudy SCT120 56.5 55.4 96% 29.85 0.0
02 03:55 Calm 10.00 Fair CLR 56.3 54.9 95% 29.85 0.0
02 03:35 Calm 10.00 Fair CLR 55.6 54.5 96% 29.85 0.0
02 03:15 Calm 10.00 Fair CLR 55.4 53.8 94% 29.86 0.0
02 02:55 NE 3 10.00 Partly Cloudy SCT025 54.9 53.2 94% 29.86 0.0
02 02:35 E 3 10.00 Partly Cloudy SCT025 54.7 52.7 93% 29.87 0.0
02 02:15 E 3 10.00 Partly Cloudy SCT014 SCT025 55.2 52.7 91% 29.88 0.0
02 01:55 E 5 10.00 Partly Cloudy SCT014 SCT025 54.5 52.3 55.4 53.2 92% 29.9 0.0 0.04
02 01:35 NE 3 10.00 Partly Cloudy SCT025 54 51.6 92% 29.9 0.0
02 01:15 E 5 10.00 Fair CLR 53.6 51.3 92% 29.9 0.0
02 00:55 E 3 10.00 Fair CLR 53.6 50.9 91% 29.91 0.0
02 00:35 Calm 10.00 Fair CLR 53.8 50.5 89% 29.92 0.0
02 00:15 Calm 10.00 Mostly Cloudy SCT022 SCT029 BKN036 54.5 51.8 91% 29.93 0.0
01 23:55 E 5 10.00 Overcast BKN026 BKN043 OVC060 54.1 51.8 92% 29.93 0.0 0.01
01 23:35 E 5 10.00 Overcast BKN028 BKN035 OVC045 53.8 51.4 92% 29.94 0.0
01 23:15 E 5 10.00 Overcast SCT036 BKN045 OVC060 54 51.3 91% 29.94 0.0
01 22:55 E 6 10.00 Overcast SCT030 BKN046 OVC060 53.6 51.1 91% 29.94 0.0 0.03 0.03
01 22:35 N 6 7.00 Overcast BKN048 OVC065 53.6 51.4 92% 29.95 0.0 0.03
01 22:15 N 5 10.00 Overcast BKN070 BKN080 OVC090 54.3 50.9 88% 29.95 0.0 0.01
01 21:55 NE 3 10.00 Overcast SCT041 OVC060 54.7 49.6 83% 29.96 0.0
Date Time (edt) Wind (mph) Vis. (mi.) Weather Sky Cond. Air Dwpt Max. Min. Relative Humidity Wind Chill (°F) Heat Index (°F) altimeter (in) sea level (mb) 1 hr 3 hr 6 hr
6 hour
Temperature (ºF) Pressure Precipitation (in)